Time;durP1;ratioP1;P1;durP2;ratioP2;P2;SDS_P1;SDS_P2;PMS_P1;PMS_P2;Temp;Humidity;BMP_temperature;BMP_pressure;BME280_temperature;BME280_humidity;BME280_pressure;Samples;Min_cycle;Max_cycle;Signal;HPM_P1;HPM_P2
2022/05/26 00:01:06;;;;;;;0.70;0.70;;;19.90;49.10;;;;;;5021119;28;20452;-80
2022/05/26 00:03:38;;;;;;;0.70;0.60;;;19.90;48.70;;;;;;5017966;28;20483;-80
2022/05/26 00:06:07;;;;;;;0.60;0.60;;;19.90;48.90;;;;;;5022042;28;20467;-80
2022/05/26 00:08:37;;;;;;;2.63;0.60;;;19.90;48.30;;;;;;5021926;28;20464;-79
2022/05/26 00:11:10;;;;;;;1.17;0.70;;;19.80;49.10;;;;;;5021715;28;20479;-80
2022/05/26 00:13:40;;;;;;;1.10;0.70;;;19.80;48.10;;;;;;5020136;28;20491;-80
2022/05/26 00:16:09;;;;;;;0.60;0.60;;;19.80;48.30;;;;;;5020393;28;20461;-79
2022/05/26 00:18:37;;;;;;;0.93;0.50;;;19.80;48.50;;;;;;5018302;28;20503;-79
2022/05/26 00:21:06;;;;;;;0.70;0.70;;;19.80;49.00;;;;;;5024529;28;20448;-79
2022/05/26 00:23:35;;;;;;;1.57;1.13;;;19.80;48.70;;;;;;5022484;28;20460;-79
2022/05/26 00:26:03;;;;;;;0.50;0.50;;;19.80;49.50;;;;;;5024089;28;20472;-80
2022/05/26 00:28:33;;;;;;;3.10;0.80;;;19.90;49.60;;;;;;5022410;28;20491;-79
2022/05/26 00:31:01;;;;;;;0.53;0.50;;;19.90;51.00;;;;;;5023759;28;20446;-79
2022/05/26 00:33:30;;;;;;;1.23;0.70;;;19.90;51.60;;;;;;5011083;28;20605;-79
2022/05/26 00:36:04;;;;;;;1.33;0.70;;;19.90;52.90;;;;;;5018208;28;20464;-79
2022/05/26 00:38:32;;;;;;;0.60;0.60;;;19.90;51.00;;;;;;5021680;28;20864;-79
2022/05/26 00:41:05;;;;;;;0.73;0.73;;;19.80;53.30;;;;;;5022288;28;20457;-79
2022/05/26 00:43:35;;;;;;;0.63;0.60;;;19.80;52.10;;;;;;5022150;28;20455;-78
2022/05/26 00:46:09;;;;;;;0.90;0.70;;;19.80;50.80;;;;;;5022027;28;20467;-78
2022/05/26 00:48:44;;;;;;;0.80;0.80;;;19.70;51.50;;;;;;5021645;28;21174;-79
2022/05/26 00:51:15;;;;;;;0.60;0.60;;;19.70;50.60;;;;;;5015601;28;20458;-79
2022/05/26 00:53:48;;;;;;;2.50;0.80;;;19.70;51.30;;;;;;5022487;28;20472;-79
2022/05/26 00:56:20;;;;;;;0.90;0.70;;;19.70;51.70;;;;;;5022043;28;20460;-78
2022/05/26 00:58:55;;;;;;;0.80;0.80;;;19.70;51.40;;;;;;5024552;28;20484;-79
2022/05/26 01:01:24;;;;;;;0.87;0.70;;;19.70;52.20;;;;;;5026398;28;20462;-79
2022/05/26 01:03:57;;;;;;;1.30;0.60;;;19.70;52.10;;;;;;5024099;28;20441;-78
2022/05/26 01:06:31;;;;;;;0.60;0.60;;;19.60;51.10;;;;;;5019918;28;20457;-79
2022/05/26 01:09:01;;;;;;;0.73;0.73;;;19.60;51.20;;;;;;5020708;28;21050;-78
2022/05/26 01:11:33;;;;;;;0.57;0.57;;;19.60;51.00;;;;;;5023796;28;20995;-79
2022/05/26 01:14:06;;;;;;;0.73;0.73;;;19.50;50.50;;;;;;5026180;28;20468;-80
2022/05/26 01:16:43;;;;;;;0.70;0.70;;;19.40;50.50;;;;;;5026648;28;20475;-79
2022/05/26 01:19:40;;;;;;;1.60;0.63;;;19.40;50.60;;;;;;5029175;28;20490;-79
2022/05/26 01:22:18;;;;;;;0.90;0.90;;;19.40;51.20;;;;;;5024749;28;20468;-79
2022/05/26 01:25:28;;;;;;;0.53;0.50;;;19.30;50.60;;;;;;5025624;28;20452;-79
2022/05/26 01:28:11;;;;;;;2.20;0.77;;;19.20;49.60;;;;;;5016641;28;20592;-79
2022/05/26 01:30:50;;;;;;;0.77;0.70;;;19.20;49.70;;;;;;5022199;28;20628;-78
2022/05/26 01:33:44;;;;;;;1.03;0.50;;;19.20;65.10;;;;;;5023177;28;20506;-79
2022/05/26 01:36:31;;;;;;;0.63;0.63;;;19.20;50.30;;;;;;5026866;28;20452;-79
2022/05/26 01:39:11;;;;;;;0.63;0.63;;;19.20;48.90;;;;;;5021337;28;20563;-79
2022/05/26 01:41:51;;;;;;;0.83;0.70;;;19.20;49.90;;;;;;5021812;28;20456;-79
2022/05/26 01:44:28;;;;;;;0.70;0.60;;;19.30;50.60;;;;;;5023563;28;20463;-79
2022/05/26 01:47:01;;;;;;;1.47;0.70;;;19.30;50.10;;;;;;5026248;28;20878;-79
2022/05/26 01:49:36;;;;;;;0.73;0.73;;;19.20;50.00;;;;;;5020723;28;20575;-79
2022/05/26 01:52:13;;;;;;;0.50;0.50;;;19.20;50.40;;;;;;5025860;28;20451;-80
2022/05/26 01:54:49;;;;;;;0.70;0.50;;;19.20;50.80;;;;;;5025338;28;21154;-79
2022/05/26 01:57:22;;;;;;;0.57;0.57;;;19.20;49.70;;;;;;5021874;28;20972;-79
2022/05/26 01:59:56;;;;;;;1.13;0.60;;;19.20;49.90;;;;;;5017070;28;20469;-79
2022/05/26 02:02:29;;;;;;;0.77;0.53;;;19.20;51.10;;;;;;5020187;28;21543;-79
2022/05/26 02:05:04;;;;;;;0.60;0.60;;;19.10;50.50;;;;;;5023260;28;20461;-79
2022/05/26 02:07:36;;;;;;;0.67;0.60;;;19.10;51.70;;;;;;5019349;28;20475;-79
2022/05/26 02:10:11;;;;;;;0.50;0.50;;;19.10;51.10;;;;;;5026703;28;20452;-79
2022/05/26 02:12:43;;;;;;;0.77;0.77;;;19.10;50.20;;;;;;5023883;28;20448;-79
2022/05/26 02:15:19;;;;;;;0.70;0.60;;;19.00;49.80;;;;;;5018431;28;20483;-79
2022/05/26 02:17:51;;;;;;;0.73;0.60;;;19.10;50.70;;;;;;5020261;28;20467;-79
2022/05/26 02:20:26;;;;;;;1.13;0.50;;;19.10;51.50;;;;;;5015426;28;20457;-80
2022/05/26 02:23:00;;;;;;;0.73;0.50;;;19.10;52.10;;;;;;5019837;28;20456;-78
2022/05/26 02:25:29;;;;;;;0.60;0.60;;;19.20;52.50;;;;;;5028914;28;20454;-79
2022/05/26 02:27:59;;;;;;;3.03;0.90;;;19.10;52.50;;;;;;5021612;28;20507;-79
2022/05/26 02:30:31;;;;;;;0.60;0.60;;;19.10;52.40;;;;;;5019832;28;21137;-79
2022/05/26 02:33:00;;;;;;;1.13;0.67;;;19.10;51.80;;;;;;5022537;28;20616;-80
2022/05/26 02:35:33;;;;;;;0.60;0.60;;;19.10;51.80;;;;;;5012893;28;20481;-79
2022/05/26 02:38:03;;;;;;;0.67;0.50;;;19.10;52.70;;;;;;5022539;28;21038;-79
2022/05/26 02:40:32;;;;;;;0.70;0.67;;;19.10;52.90;;;;;;5011294;28;20462;-78
2022/05/26 02:43:02;;;;;;;0.70;0.70;;;19.10;53.00;;;;;;5019974;28;21014;-79
2022/05/26 02:45:40;;;;;;;0.70;0.53;;;19.10;54.30;;;;;;5017152;28;20488;-78
2022/05/26 02:48:21;;;;;;;1.33;0.60;;;19.10;52.70;;;;;;5017820;28;20480;-78
2022/05/26 02:50:56;;;;;;;1.47;0.60;;;19.00;53.30;;;;;;5019049;28;20456;-79
2022/05/26 02:53:31;;;;;;;0.50;0.50;;;19.00;52.20;;;;;;5016292;28;20483;-78
2022/05/26 02:56:14;;;;;;;0.50;0.50;;;18.90;52.60;;;;;;5015189;28;20480;-79
2022/05/26 02:58:52;;;;;;;0.50;0.50;;;18.80;51.60;;;;;;5019255;28;20880;-79
2022/05/26 03:01:25;;;;;;;0.93;0.57;;;18.80;51.60;;;;;;5009448;28;20460;-80
2022/05/26 03:03:57;;;;;;;0.60;0.60;;;18.80;51.70;;;;;;5016479;28;20532;-79
2022/05/26 03:06:32;;;;;;;0.53;0.53;;;18.90;51.40;;;;;;5022117;28;20452;-80
2022/05/26 03:09:01;;;;;;;0.60;0.60;;;18.90;53.10;;;;;;5011810;28;20460;-79
2022/05/26 03:11:30;;;;;;;0.57;0.50;;;18.90;52.60;;;;;;5026432;28;20486;-79
2022/05/26 03:13:58;;;;;;;0.70;0.60;;;18.80;52.90;;;;;;5013887;28;20558;-77
2022/05/26 03:16:26;;;;;;;0.57;0.57;;;18.80;54.20;;;;;;5020795;28;20808;-78
2022/05/26 03:18:54;;;;;;;0.60;0.60;;;18.80;54.00;;;;;;5014085;28;20477;-80
2022/05/26 03:21:22;;;;;;;1.00;0.60;;;18.80;54.60;;;;;;5018519;28;20965;-79
2022/05/26 03:23:52;;;;;;;0.70;0.57;;;18.80;54.10;;;;;;5015651;28;20449;-79
2022/05/26 03:26:21;;;;;;;0.77;0.70;;;18.80;53.50;;;;;;5013180;28;20461;-78
2022/05/26 03:28:49;;;;;;;0.63;0.60;;;18.80;54.20;;;;;;5015671;28;20476;-78
2022/05/26 03:31:17;;;;;;;0.60;0.60;;;18.80;54.20;;;;;;5018182;28;20507;-79
2022/05/26 03:42:05;;;;;;;1.60;0.73;;;18.70;53.30;;;;;;5026225;28;20495;-79
2022/05/26 03:44:34;;;;;;;1.10;0.70;;;18.60;52.60;;;;;;5017516;28;20461;-79
2022/05/26 03:47:04;;;;;;;0.70;0.57;;;18.60;54.20;;;;;;5014743;28;20460;-79
2022/05/26 03:49:33;;;;;;;0.70;0.50;;;18.60;52.70;;;;;;5014754;28;20473;-79
2022/05/26 03:52:01;;;;;;;0.50;0.50;;;18.60;53.80;;;;;;5014631;28;20804;-79
2022/05/26 03:54:33;;;;;;;0.60;0.53;;;18.60;54.90;;;;;;5016946;28;20488;-79
2022/05/26 03:57:02;;;;;;;0.60;0.60;;;18.60;54.30;;;;;;5021167;28;20452;-79
2022/05/26 03:59:30;;;;;;;0.70;0.70;;;18.60;54.50;;;;;;5014545;28;20493;-77
2022/05/26 04:01:58;;;;;;;0.70;0.60;;;18.60;55.10;;;;;;5017660;28;20461;-78
2022/05/26 04:04:27;;;;;;;1.33;0.70;;;18.60;54.50;;;;;;5016268;28;20673;-78
2022/05/26 04:06:56;;;;;;;1.87;0.70;;;18.50;54.30;;;;;;5020945;28;20457;-77
2022/05/26 04:09:24;;;;;;;2.53;0.50;;;18.60;54.70;;;;;;5014838;28;20477;-78
2022/05/26 04:11:54;;;;;;;0.53;0.53;;;18.60;55.20;;;;;;5020280;28;20452;-77
2022/05/26 04:14:22;;;;;;;1.07;0.70;;;18.60;55.00;;;;;;5019149;28;20469;-77
2022/05/26 04:16:50;;;;;;;0.90;0.50;;;18.40;53.70;;;;;;5013094;28;20464;-77
2022/05/26 04:19:18;;;;;;;0.90;0.53;;;18.40;53.90;;;;;;5017740;28;20852;-78
2022/05/26 04:24:29;;;;;;;0.90;0.60;;;18.40;54.90;;;;;;5020944;28;20836;-78
2022/05/26 04:26:58;;;;;;;0.70;0.70;;;18.40;55.40;;;;;;5015782;28;21409;-78
2022/05/26 04:29:27;;;;;;;0.60;0.60;;;18.40;55.40;;;;;;5016704;28;20473;-78
2022/05/26 04:31:55;;;;;;;0.60;0.60;;;18.50;57.10;;;;;;5021060;28;20452;-76
2022/05/26 04:34:23;;;;;;;1.53;0.70;;;18.60;57.50;;;;;;5031054;28;20813;-78
2022/05/26 04:36:51;;;;;;;0.70;0.70;;;18.50;56.30;;;;;;5016908;28;20437;-78
2022/05/26 04:39:20;;;;;;;0.70;0.70;;;18.40;55.30;;;;;;5016169;28;20947;-78
2022/05/26 04:41:48;;;;;;;0.60;0.60;;;18.40;56.60;;;;;;5017977;28;20457;-79
2022/05/26 04:44:19;;;;;;;1.03;0.80;;;18.20;54.80;;;;;;5019802;28;20464;-79
2022/05/26 04:46:47;;;;;;;0.87;0.60;;;18.30;56.80;;;;;;5016071;28;20455;-79
2022/05/26 04:49:16;;;;;;;0.60;0.60;;;18.30;57.80;;;;;;5022227;28;20480;-79
2022/05/26 04:51:45;;;;;;;0.60;0.60;;;18.20;57.10;;;;;;5018927;28;20467;-79
2022/05/26 04:54:13;;;;;;;0.70;0.50;;;18.30;58.10;;;;;;5021226;28;20475;-78
2022/05/26 04:56:41;;;;;;;0.60;0.60;;;18.30;59.10;;;;;;5023813;28;20473;-78
2022/05/26 04:59:09;;;;;;;0.97;0.70;;;18.40;58.80;;;;;;5012730;28;20496;-78
2022/05/26 05:01:39;;;;;;;0.93;0.70;;;18.50;59.80;;;;;;5019676;28;20518;-79
2022/05/26 05:04:07;;;;;;;0.77;0.77;;;18.50;61.40;;;;;;5014771;28;20511;-79
2022/05/26 05:06:36;;;;;;;0.90;0.60;;;18.60;60.50;;;;;;5017604;28;20460;-79
2022/05/26 05:09:04;;;;;;;1.27;0.80;;;18.60;61.30;;;;;;5013620;28;20492;-79
2022/05/26 05:11:33;;;;;;;0.60;0.60;;;18.60;59.70;;;;;;5019350;28;20463;-78
2022/05/26 05:14:03;;;;;;;0.70;0.50;;;18.50;60.00;;;;;;5015078;28;20457;-78
2022/05/26 05:16:34;;;;;;;0.70;0.63;;;18.40;57.90;;;;;;5019516;28;20897;-78
2022/05/26 05:19:04;;;;;;;0.70;0.60;;;18.40;58.20;;;;;;5013706;28;20488;-78
2022/05/26 05:21:39;;;;;;;0.67;0.67;;;18.30;57.80;;;;;;5016086;28;20452;-78
2022/05/26 05:24:14;;;;;;;0.70;0.70;;;18.10;54.60;;;;;;5013553;28;21040;-78
2022/05/26 05:26:45;;;;;;;0.50;0.50;;;18.00;55.40;;;;;;5014451;28;20457;-78
2022/05/26 05:29:16;;;;;;;0.77;0.70;;;18.10;54.70;;;;;;5010046;28;20488;-79
2022/05/26 05:31:49;;;;;;;0.70;0.70;;;18.20;56.30;;;;;;5021024;28;20461;-79
2022/05/26 05:34:24;;;;;;;0.80;0.80;;;18.20;56.50;;;;;;5025068;28;20463;-78
2022/05/26 05:36:52;;;;;;;0.90;0.50;;;18.30;56.50;;;;;;5011799;28;20492;-78
2022/05/26 05:39:21;;;;;;;2.30;0.70;;;18.30;59.30;;;;;;5015140;28;20480;-77
2022/05/26 05:41:49;;;;;;;0.60;0.60;;;18.30;59.40;;;;;;5020045;28;20479;-78
2022/05/26 05:44:17;;;;;;;1.40;0.60;;;18.40;60.50;;;;;;5020181;28;20448;-75
2022/05/26 05:46:57;;;;;;;0.70;0.60;;;18.40;63.60;;;;;;5025196;28;20460;-75
2022/05/26 05:49:28;;;;;;;1.07;0.70;;;18.40;63.60;;;;;;5021465;28;20474;-75
2022/05/26 05:51:57;;;;;;;1.70;0.90;;;18.60;82.30;;;;;;5018198;28;20472;-76
2022/05/26 05:54:25;;;;;;;1.00;0.90;;;18.70;66.70;;;;;;5025941;28;20456;-79
2022/05/26 05:56:54;;;;;;;1.67;0.50;;;18.70;67.70;;;;;;5027721;28;20487;-79
2022/05/26 05:59:22;;;;;;;1.53;0.60;;;18.80;67.90;;;;;;5027386;28;20503;-78
2022/05/26 06:01:50;;;;;;;0.53;0.50;;;18.50;62.80;;;;;;5026953;28;20459;-78
2022/05/26 06:04:19;;;;;;;0.97;0.50;;;18.50;62.20;;;;;;5030640;28;20452;-78
2022/05/26 06:06:48;;;;;;;0.80;0.70;;;18.50;62.60;;;;;;5030071;28;20453;-79
2022/05/26 06:09:17;;;;;;;0.63;0.63;;;18.40;60.50;;;;;;5032262;28;20472;-78
2022/05/26 06:11:46;;;;;;;0.87;0.60;;;18.20;59.10;;;;;;5029027;28;20991;-79
2022/05/26 06:14:15;;;;;;;0.60;0.60;;;18.00;58.40;;;;;;5028827;28;20828;-79
2022/05/26 06:16:44;;;;;;;1.45;0.60;;;18.10;61.70;;;;;;5023083;28;20545;-78
2022/05/26 06:19:13;;;;;;;1.10;0.70;;;18.40;66.50;;;;;;5031371;28;20220;-80
2022/05/26 06:21:42;;;;;;;0.60;0.60;;;18.40;64.80;;;;;;5033010;28;20523;-83
2022/05/26 06:24:12;;;;;;;0.60;0.60;;;18.40;69.00;;;;;;5021746;28;21014;-83
2022/05/26 06:26:40;;;;;;;0.57;0.50;;;18.50;69.80;;;;;;5025855;28;20449;-84
2022/05/26 06:37:32;;;;;;;1.43;0.80;;;19.00;76.20;;;;;;5023852;28;21045;-78
2022/05/26 06:40:02;;;;;;;0.70;0.70;;;19.10;78.20;;;;;;5024151;28;20534;-78
2022/05/26 06:42:30;;;;;;;0.80;0.60;;;19.10;78.10;;;;;;5022594;28;20491;-77
2022/05/26 06:44:59;;;;;;;0.60;0.60;;;19.10;79.20;;;;;;5033569;28;20458;-78
2022/05/26 06:47:27;;;;;;;0.83;0.70;;;19.10;79.10;;;;;;5019767;28;21256;-79
2022/05/26 06:49:55;;;;;;;1.63;1.00;;;19.20;81.50;;;;;;5026739;28;20484;-78
2022/05/26 06:52:24;;;;;;;0.70;0.70;;;19.20;81.30;;;;;;5029227;28;20486;-78
2022/05/26 06:54:54;;;;;;;0.97;0.97;;;18.90;79.70;;;;;;5022440;28;20456;-77
2022/05/26 06:57:23;;;;;;;0.50;0.40;;;19.30;78.10;;;;;;5012045;28;20472;-78
2022/05/26 06:59:51;;;;;;;0.57;0.57;;;19.30;73.10;;;;;;5026785;28;20472;-78
2022/05/26 07:02:21;;;;;;;0.97;0.80;;;19.20;70.00;;;;;;5035597;28;20467;-78
2022/05/26 07:04:49;;;;;;;0.90;0.50;;;19.10;69.80;;;;;;5030253;28;20456;-78
2022/05/26 07:07:25;;;;;;;0.93;0.60;;;19.10;70.30;;;;;;5018598;28;20448;-78
2022/05/26 07:09:55;;;;;;;0.60;0.60;;;19.20;90.30;;;;;;5028527;28;20477;-78
2022/05/26 07:12:25;;;;;;;1.33;0.50;;;19.30;70.10;;;;;;5026700;28;20452;-78
2022/05/26 07:14:54;;;;;;;0.70;0.60;;;19.30;70.20;;;;;;5012250;28;20897;-78
2022/05/26 07:17:22;;;;;;;0.77;0.60;;;19.40;75.20;;;;;;5021316;28;20487;-78
2022/05/26 07:19:50;;;;;;;1.07;0.50;;;19.40;74.30;;;;;;5029648;28;20482;-78
2022/05/26 07:22:19;;;;;;;0.50;0.50;;;19.50;74.40;;;;;;5027370;28;20544;-78
2022/05/26 07:24:49;;;;;;;2.03;0.50;;;19.40;73.00;;;;;;5037178;28;20455;-79
2022/05/26 07:27:17;;;;;;;1.03;0.70;;;19.20;69.30;;;;;;5028456;28;21022;-78
2022/05/26 07:29:54;;;;;;;0.77;0.70;;;19.30;71.20;;;;;;5026880;28;20491;-77
2022/05/26 07:32:24;;;;;;;1.60;0.70;;;19.60;70.80;;;;;;5025419;28;21139;-79
2022/05/26 07:34:52;;;;;;;1.17;0.50;;;19.10;69.80;;;;;;5024741;28;20460;-78
2022/05/26 07:42:55;;;;;;;0.50;0.50;;;19.30;71.70;;;;;;5032402;28;20462;-78
2022/05/26 07:45:25;;;;;;;0.60;0.50;;;19.30;72.20;;;;;;5031240;28;21012;-78
2022/05/26 07:47:53;;;;;;;0.50;0.50;;;19.30;73.20;;;;;;5029563;28;20452;-78
2022/05/26 07:50:21;;;;;;;1.33;0.50;;;19.30;71.00;;;;;;5027167;28;20455;-78
2022/05/26 07:52:51;;;;;;;0.60;0.60;;;19.30;74.60;;;;;;5029094;28;20448;-78
2022/05/26 07:55:20;;;;;;;0.47;0.40;;;19.40;72.70;;;;;;5032406;28;20459;-78
2022/05/26 07:57:56;;;;;;;1.03;0.60;;;19.50;72.40;;;;;;5026214;28;20490;-78
2022/05/26 08:00:26;;;;;;;1.07;0.60;;;19.60;75.20;;;;;;5033728;28;20456;-78
2022/05/26 08:02:55;;;;;;;1.23;0.70;;;19.60;73.60;;;;;;5028195;28;20464;-78
2022/05/26 08:05:23;;;;;;;0.70;0.57;;;19.50;73.90;;;;;;5030654;28;20449;-78
2022/05/26 08:07:51;;;;;;;1.27;0.50;;;19.40;74.40;;;;;;5021911;28;20937;-78
2022/05/26 08:10:20;;;;;;;0.50;0.50;;;19.50;77.30;;;;;;5028657;28;20448;-78
2022/05/26 08:12:48;;;;;;;0.50;0.50;;;19.60;77.10;;;;;;5027016;28;20984;-78
2022/05/26 08:15:17;;;;;;;1.03;0.50;;;19.60;77.40;;;;;;5027219;28;20452;-79
2022/05/26 08:17:46;;;;;;;0.73;0.67;;;19.70;75.60;;;;;;5030664;28;20494;-78
2022/05/26 08:20:15;;;;;;;0.60;0.60;;;19.80;78.30;;;;;;5028501;28;20456;-78
2022/05/26 08:22:43;;;;;;;0.97;0.70;;;19.70;76.60;;;;;;5026912;28;20464;-77
2022/05/26 08:25:11;;;;;;;1.00;0.60;;;19.70;76.50;;;;;;5029298;28;20460;-78
2022/05/26 08:27:39;;;;;;;0.60;0.60;;;19.60;76.60;;;;;;5032573;28;20470;-78
2022/05/26 08:30:09;;;;;;;0.80;0.50;;;19.80;79.40;;;;;;5026629;28;20476;-78
2022/05/26 08:32:37;;;;;;;3.00;0.50;;;19.80;76.60;;;;;;5028010;28;20461;-78
2022/05/26 08:35:10;;;;;;;1.07;0.60;;;19.90;79.10;;;;;;5027803;28;20518;-78
2022/05/26 08:37:38;;;;;;;1.33;0.60;;;19.90;92.50;;;;;;5031119;28;20471;-76
2022/05/26 08:40:08;;;;;;;0.67;0.60;;;19.80;80.80;;;;;;5027142;28;20476;-77
2022/05/26 08:42:37;;;;;;;1.93;0.53;;;20.00;81.00;;;;;;5027712;28;20455;-77
2022/05/26 08:45:11;;;;;;;1.53;0.50;;;20.10;83.60;;;;;;5022725;28;20487;-76
2022/05/26 08:47:43;;;;;;;0.60;0.53;;;20.10;83.30;;;;;;5017947;28;20476;-77
2022/05/26 08:50:16;;;;;;;1.57;1.47;;;20.20;84.30;;;;;;5020062;28;20465;-77
2022/05/26 08:52:49;;;;;;;1.00;0.73;;;20.20;84.20;;;;;;5028737;28;21113;-76
2022/05/26 08:55:19;;;;;;;0.80;0.60;;;20.30;86.20;;;;;;5013606;28;20460;-78
2022/05/26 08:57:53;;;;;;;1.13;0.50;;;20.30;82.10;;;;;;5016388;28;20587;-77
2022/05/26 09:00:24;;;;;;;0.67;0.50;;;20.30;83.50;;;;;;5017905;28;20977;-77
2022/05/26 09:02:55;;;;;;;1.37;0.70;;;20.40;84.60;;;;;;5027569;28;20494;-77
2022/05/26 09:05:25;;;;;;;0.53;0.50;;;20.40;83.70;;;;;;5022407;28;20807;-78
2022/05/26 09:13:35;;;;;;;0.90;0.50;;;20.60;84.30;;;;;;5021134;28;20478;-77
2022/05/26 09:16:06;;;;;;;1.73;0.60;;;20.50;84.00;;;;;;5031114;28;21010;-77
2022/05/26 09:18:35;;;;;;;0.60;0.60;;;20.60;88.20;;;;;;5029562;28;20488;-77
2022/05/26 09:21:21;;;;;;;0.57;0.50;;;20.70;90.60;;;;;;5031128;28;20455;-78
2022/05/26 09:23:49;;;;;;;1.50;0.50;;;20.80;90.20;;;;;;5029802;28;20453;-77
2022/05/26 09:26:20;;;;;;;0.83;0.50;;;20.90;90.90;;;;;;5027457;28;20475;-76
2022/05/26 09:28:51;;;;;;;0.60;0.60;;;20.90;90.80;;;;;;5035799;28;20483;-76
2022/05/26 09:31:29;;;;;;;0.77;0.70;;;21.00;90.10;;;;;;5035411;28;20574;-77
2022/05/26 09:34:10;;;;;;;0.70;0.53;;;21.00;88.70;;;;;;5028712;28;20491;-76
2022/05/26 09:36:48;;;;;;;0.70;0.70;;;20.90;87.00;;;;;;5026136;28;20456;-76
2022/05/26 09:39:20;;;;;;;1.00;0.83;;;20.80;83.50;;;;;;5031437;28;20566;-77
2022/05/26 09:41:51;;;;;;;0.83;0.60;;;20.80;86.30;;;;;;5030164;28;20448;-77
2022/05/26 09:44:55;;;;;;;0.67;0.60;;;20.80;86.20;;;;;;5030837;28;20479;-76
2022/05/26 09:47:29;;;;;;;0.50;0.50;;;20.90;84.80;;;;;;5023750;28;20471;-77
2022/05/26 09:49:59;;;;;;;1.47;0.60;;;20.90;86.60;;;;;;5031148;28;20477;-76
2022/05/26 09:52:38;;;;;;;2.20;0.67;;;20.90;87.30;;;;;;5024937;28;20508;-78
2022/05/26 09:55:17;;;;;;;0.60;0.60;;;20.90;85.60;;;;;;5019577;28;20974;-77
2022/05/26 09:57:46;;;;;;;0.90;0.60;;;20.80;85.10;;;;;;5024374;28;22345;-77
2022/05/26 10:00:31;;;;;;;0.60;0.60;;;20.30;83.30;;;;;;5025623;28;20486;-78
2022/05/26 10:03:00;;;;;;;1.60;0.50;;;20.70;85.40;;;;;;5028558;28;20459;-78
2022/05/26 10:05:38;;;;;;;0.63;0.63;;;20.70;83.60;;;;;;5030329;28;20467;-78
2022/05/26 10:08:16;;;;;;;0.57;0.50;;;20.60;84.10;;;;;;5030882;28;20476;-78
2022/05/26 10:10:51;;;;;;;1.43;0.70;;;20.60;81.50;;;;;;5027009;28;20474;-79
2022/05/26 10:13:36;;;;;;;1.20;0.60;;;20.60;82.40;;;;;;5027109;28;20530;-78
2022/05/26 10:16:12;;;;;;;0.73;0.50;;;20.50;78.60;;;;;;5032524;28;20457;-77
2022/05/26 10:19:06;;;;;;;0.50;0.50;;;20.50;81.30;;;;;;5029635;28;20897;-78
2022/05/26 10:21:47;;;;;;;0.60;0.60;;;20.60;83.50;;;;;;5024252;28;20543;-78
2022/05/26 10:24:42;;;;;;;0.63;0.50;;;20.60;83.80;;;;;;5025925;28;20471;-78
2022/05/26 10:27:23;;;;;;;0.60;0.60;;;20.60;83.90;;;;;;5031093;28;20450;-78
2022/05/26 10:30:14;;;;;;;1.17;0.70;;;20.60;84.90;;;;;;5023002;28;20489;-79
2022/05/26 10:33:03;;;;;;;1.00;0.90;;;20.60;85.30;;;;;;5031154;28;20550;-78
2022/05/26 10:35:39;;;;;;;0.60;0.60;;;20.60;86.40;;;;;;5034476;28;20463;-78
2022/05/26 10:38:31;;;;;;;0.97;0.60;;;20.70;89.30;;;;;;5024937;28;20835;-78
2022/05/26 10:41:15;;;;;;;0.60;0.50;;;20.60;86.80;;;;;;5023536;28;20464;-78
2022/05/26 10:43:48;;;;;;;2.00;0.97;;;20.60;86.00;;;;;;5027807;28;20469;-78
2022/05/26 10:46:20;;;;;;;1.07;0.60;;;20.60;85.80;;;;;;5030306;28;20456;-77
2022/05/26 10:48:55;;;;;;;0.60;0.60;;;20.60;86.30;;;;;;5034444;28;20498;-78
2022/05/26 10:51:26;;;;;;;0.53;0.53;;;20.60;87.00;;;;;;5033057;28;20450;-78
2022/05/26 10:53:59;;;;;;;0.60;0.60;;;20.60;86.30;;;;;;5026203;28;20460;-77
2022/05/26 10:56:32;;;;;;;1.50;0.50;;;20.60;86.30;;;;;;5022873;28;20978;-78
2022/05/26 10:59:11;;;;;;;1.33;0.60;;;20.60;87.10;;;;;;5030671;28;20469;-78
2022/05/26 11:01:45;;;;;;;1.60;0.60;;;20.60;89.50;;;;;;5024881;28;20457;-79
2022/05/26 11:04:21;;;;;;;0.67;0.60;;;20.60;88.20;;;;;;5022726;28;20479;-78
2022/05/26 11:06:52;;;;;;;0.90;0.63;;;20.60;89.30;;;;;;5031079;28;20532;-78
2022/05/26 11:09:29;;;;;;;1.03;0.60;;;20.60;88.00;;;;;;5028674;28;20503;-78
2022/05/26 11:12:02;;;;;;;0.60;0.60;;;20.60;89.60;;;;;;5035128;28;20448;-78
2022/05/26 11:17:34;;;;;;;0.70;0.70;;;20.70;90.30;;;;;;5027323;28;20471;-78
2022/05/26 11:20:07;;;;;;;0.93;0.60;;;20.70;90.70;;;;;;5029498;28;20598;-78
2022/05/26 11:22:35;;;;;;;1.13;0.60;;;20.60;89.00;;;;;;5026806;28;20455;-78
2022/05/26 11:25:04;;;;;;;0.90;0.70;;;20.50;87.30;;;;;;5030195;28;20471;-77
2022/05/26 11:27:40;;;;;;;1.63;0.70;;;20.60;88.70;;;;;;5024818;28;20523;-78
2022/05/26 11:36:22;;;;;;;1.00;0.83;;;20.60;90.10;;;;;;5023081;28;20483;-78
2022/05/26 11:38:52;;;;;;;1.27;0.90;;;20.60;90.50;;;;;;5021391;28;20488;-78
2022/05/26 11:41:28;;;;;;;1.17;0.90;;;20.60;89.70;;;;;;5028173;28;20453;-78
2022/05/26 11:44:04;;;;;;;0.73;0.73;;;20.40;85.20;;;;;;5026841;28;20523;-78
2022/05/26 11:46:53;;;;;;;0.90;0.90;;;20.30;84.80;;;;;;5026408;28;20448;-78
2022/05/26 11:49:58;;;;;;;1.10;0.90;;;20.30;85.30;;;;;;5029709;28;20502;-78
2022/05/26 11:53:12;;;;;;;0.83;0.80;;;20.40;84.00;;;;;;5015352;28;20485;-78
2022/05/26 11:55:49;;;;;;;0.90;0.70;;;20.50;87.20;;;;;;5027589;28;20525;-78
2022/05/26 11:58:37;;;;;;;0.90;0.60;;;20.50;86.60;;;;;;5021536;28;20472;-78
2022/05/26 12:01:29;;;;;;;0.67;0.67;;;20.50;87.70;;;;;;5029408;28;20506;-77
2022/05/26 12:04:24;;;;;;;1.00;0.90;;;20.60;88.70;;;;;;5028492;28;21004;-78
2022/05/26 12:06:56;;;;;;;3.60;0.90;;;20.60;89.30;;;;;;5030920;28;20521;-79
2022/05/26 12:09:35;;;;;;;1.00;0.80;;;20.70;90.10;;;;;;5023899;28;20480;-78
2022/05/26 12:12:07;;;;;;;0.60;0.60;;;20.70;89.50;;;;;;5027488;28;20464;-78
2022/05/26 12:14:43;;;;;;;0.90;0.70;;;20.70;89.90;;;;;;5028260;28;20475;-78
2022/05/26 12:17:30;;;;;;;0.53;0.53;;;20.70;90.50;;;;;;5025531;28;20471;-78
2022/05/26 12:20:03;;;;;;;1.00;0.60;;;20.70;90.60;;;;;;5029594;28;20507;-78
2022/05/26 12:22:33;;;;;;;0.83;0.80;;;20.70;90.80;;;;;;5030556;28;20457;-78
2022/05/26 12:25:23;;;;;;;0.90;0.70;;;20.80;92.60;;;;;;5030653;28;20478;-78
2022/05/26 12:28:00;;;;;;;0.70;0.63;;;20.80;91.40;;;;;;5026607;28;20807;-78
2022/05/26 12:30:41;;;;;;;0.73;0.67;;;20.90;92.00;;;;;;5025073;28;20459;-78
2022/05/26 12:34:09;;;;;;;1.70;0.60;;;20.80;90.90;;;;;;5020076;28;21316;-77
2022/05/26 12:36:57;;;;;;;0.60;0.60;;;20.80;92.10;;;;;;5019122;28;20449;-78
2022/05/26 12:39:50;;;;;;;0.60;0.60;;;20.90;92.60;;;;;;5021000;28;20491;-78
2022/05/26 12:42:35;;;;;;;1.00;0.80;;;21.00;99.90;;;;;;5025480;28;20948;-78
2022/05/26 12:45:24;;;;;;;1.03;0.67;;;21.00;93.50;;;;;;5019443;28;20453;-75
2022/05/26 12:48:13;;;;;;;0.70;0.70;;;21.00;94.40;;;;;;5028058;28;20477;-78
2022/05/26 12:50:44;;;;;;;0.60;0.60;;;21.10;94.70;;;;;;5033224;28;20448;-78
2022/05/26 12:53:18;;;;;;;0.90;0.60;;;21.20;95.60;;;;;;5026496;28;20539;-76
2022/05/26 12:55:59;;;;;;;0.70;0.70;;;21.00;93.60;;;;;;5033291;28;20448;-78
2022/05/26 12:58:36;;;;;;;0.80;0.70;;;21.10;93.30;;;;;;5024756;28;20484;-81
2022/05/26 13:01:06;;;;;;;2.27;0.70;;;21.20;95.10;;;;;;5025835;28;20487;-78
2022/05/26 13:03:39;;;;;;;1.73;0.60;;;21.30;93.50;;;;;;5027681;28;20690;-78
2022/05/26 13:06:11;;;;;;;0.50;0.50;;;21.00;90.80;;;;;;5025530;28;20452;-78
2022/05/26 13:08:47;;;;;;;1.73;0.60;;;21.00;92.70;;;;;;5036380;28;20481;-78
2022/05/26 13:11:18;;;;;;;2.20;0.60;;;21.10;92.90;;;;;;5027438;28;20955;-79
2022/05/26 13:13:51;;;;;;;0.60;0.60;;;21.10;93.20;;;;;;5032766;28;21033;-78
2022/05/26 13:16:29;;;;;;;0.70;0.60;;;21.10;93.10;;;;;;5027380;28;20463;-78
2022/05/26 13:19:09;;;;;;;1.10;0.70;;;21.30;93.90;;;;;;5017953;28;20484;-77
2022/05/26 13:21:40;;;;;;;1.00;0.87;;;21.30;94.50;;;;;;5030037;28;20534;-78
2022/05/26 13:24:16;;;;;;;0.67;0.60;;;21.30;94.30;;;;;;5017798;28;20456;-79
2022/05/26 13:26:45;;;;;;;0.93;0.80;;;21.30;93.80;;;;;;5031211;28;20452;-79
2022/05/26 13:29:17;;;;;;;2.73;0.70;;;21.30;94.10;;;;;;5033498;28;21010;-79
2022/05/26 13:34:34;;;;;;;0.90;0.63;;;21.30;95.10;;;;;;5029771;28;20507;-79
2022/05/26 13:37:16;;;;;;;0.60;0.60;;;21.30;94.30;;;;;;5026923;28;20968;-78
2022/05/26 13:39:44;;;;;;;0.83;0.50;;;21.30;94.80;;;;;;5032487;28;20570;-77
2022/05/26 13:42:14;;;;;;;0.87;0.77;;;21.30;95.40;;;;;;5021522;28;20459;-79
2022/05/26 13:44:45;;;;;;;0.73;0.60;;;21.30;95.20;;;;;;5028012;28;20456;-79
2022/05/26 13:47:14;;;;;;;0.70;0.70;;;21.30;95.20;;;;;;5027088;28;20470;-79
2022/05/26 13:49:44;;;;;;;0.70;0.70;;;21.30;93.70;;;;;;5028392;28;20479;-77
2022/05/26 13:52:20;;;;;;;0.60;0.60;;;21.40;93.70;;;;;;5030961;28;21037;-81
2022/05/26 13:54:53;;;;;;;0.60;0.60;;;21.30;94.00;;;;;;5026409;28;20455;-80
2022/05/26 13:57:26;;;;;;;0.90;0.80;;;21.40;95.60;;;;;;5021315;28;20448;-79
2022/05/26 13:59:57;;;;;;;1.13;0.70;;;21.50;96.10;;;;;;5025803;28;20496;-81
2022/05/26 14:02:28;;;;;;;0.70;0.70;;;21.50;96.50;;;;;;5024797;28;20466;-81